sensor_id;sensor_type;location;lat;lon;timestamp;P1;durP1;ratioP1;P2;durP2;ratioP2
35506;SDS011;36461;52.018;21.036;2023-06-24T00:02:24;5.30;;;4.60;;
35506;SDS011;36461;52.018;21.036;2023-06-24T00:04:52;4.90;;;4.40;;
35506;SDS011;36461;52.018;21.036;2023-06-24T00:07:20;6.40;;;5.20;;
35506;SDS011;36461;52.018;21.036;2023-06-24T00:09:50;6.00;;;5.00;;
35506;SDS011;36461;52.018;21.036;2023-06-24T00:12:18;5.50;;;4.40;;
35506;SDS011;36461;52.018;21.036;2023-06-24T00:14:47;5.50;;;4.20;;
35506;SDS011;36461;52.018;21.036;2023-06-24T00:17:15;4.50;;;4.10;;
35506;SDS011;36461;52.018;21.036;2023-06-24T00:19:44;6.90;;;4.30;;
35506;SDS011;36461;52.018;21.036;2023-06-24T00:22:12;6.00;;;4.10;;
35506;SDS011;36461;52.018;21.036;2023-06-24T00:24:42;6.40;;;4.30;;
35506;SDS011;36461;52.018;21.036;2023-06-24T00:27:10;5.60;;;5.00;;
35506;SDS011;36461;52.018;21.036;2023-06-24T00:29:39;5.90;;;4.60;;
35506;SDS011;36461;52.018;21.036;2023-06-24T00:32:07;5.10;;;4.60;;
35506;SDS011;36461;52.018;21.036;2023-06-24T00:34:35;8.10;;;4.70;;
35506;SDS011;36461;52.018;21.036;2023-06-24T00:37:04;8.00;;;4.80;;
35506;SDS011;36461;52.018;21.036;2023-06-24T00:39:32;6.60;;;5.30;;
35506;SDS011;36461;52.018;21.036;2023-06-24T00:42:01;6.10;;;4.80;;
35506;SDS011;36461;52.018;21.036;2023-06-24T00:44:29;6.00;;;4.70;;
35506;SDS011;36461;52.018;21.036;2023-06-24T00:47:00;4.70;;;4.10;;
35506;SDS011;36461;52.018;21.036;2023-06-24T00:49:29;6.40;;;4.30;;
35506;SDS011;36461;52.018;21.036;2023-06-24T00:51:58;4.80;;;3.70;;
35506;SDS011;36461;52.018;21.036;2023-06-24T00:54:28;11.30;;;4.30;;
35506;SDS011;36461;52.018;21.036;2023-06-24T00:56:59;5.80;;;4.40;;
35506;SDS011;36461;52.018;21.036;2023-06-24T00:59:28;4.80;;;4.10;;
35506;SDS011;36461;52.018;21.036;2023-06-24T01:01:58;5.80;;;4.30;;
35506;SDS011;36461;52.018;21.036;2023-06-24T01:04:34;5.30;;;4.70;;
35506;SDS011;36461;52.018;21.036;2023-06-24T01:07:02;7.50;;;4.90;;
35506;SDS011;36461;52.018;21.036;2023-06-24T01:09:33;6.60;;;5.00;;
35506;SDS011;36461;52.018;21.036;2023-06-24T01:12:03;7.20;;;5.80;;
35506;SDS011;36461;52.018;21.036;2023-06-24T01:14:32;9.60;;;8.00;;
35506;SDS011;36461;52.018;21.036;2023-06-24T01:17:09;10.40;;;8.50;;
35506;SDS011;36461;52.018;21.036;2023-06-24T01:19:51;9.40;;;7.00;;
35506;SDS011;36461;52.018;21.036;2023-06-24T01:33:13;9.20;;;4.50;;
35506;SDS011;36461;52.018;21.036;2023-06-24T01:35:48;4.80;;;4.30;;
35506;SDS011;36461;52.018;21.036;2023-06-24T01:38:21;6.20;;;4.70;;
35506;SDS011;36461;52.018;21.036;2023-06-24T01:40:52;5.90;;;4.90;;
35506;SDS011;36461;52.018;21.036;2023-06-24T01:43:22;5.80;;;5.20;;
35506;SDS011;36461;52.018;21.036;2023-06-24T01:45:52;7.80;;;5.10;;
35506;SDS011;36461;52.018;21.036;2023-06-24T01:48:27;7.20;;;4.80;;
35506;SDS011;36461;52.018;21.036;2023-06-24T01:53:44;7.70;;;5.60;;
35506;SDS011;36461;52.018;21.036;2023-06-24T01:56:28;6.20;;;5.10;;
35506;SDS011;36461;52.018;21.036;2023-06-24T01:58:58;7.50;;;5.00;;
35506;SDS011;36461;52.018;21.036;2023-06-24T02:01:30;6.80;;;5.20;;
35506;SDS011;36461;52.018;21.036;2023-06-24T02:04:00;5.80;;;5.10;;
35506;SDS011;36461;52.018;21.036;2023-06-24T02:06:30;6.60;;;5.20;;
35506;SDS011;36461;52.018;21.036;2023-06-24T02:08:59;6.80;;;4.90;;
35506;SDS011;36461;52.018;21.036;2023-06-24T02:11:30;6.60;;;5.20;;
35506;SDS011;36461;52.018;21.036;2023-06-24T02:14:02;6.70;;;5.20;;
35506;SDS011;36461;52.018;21.036;2023-06-24T02:16:32;7.20;;;5.00;;
35506;SDS011;36461;52.018;21.036;2023-06-24T02:19:02;6.70;;;5.40;;
35506;SDS011;36461;52.018;21.036;2023-06-24T02:21:33;5.60;;;4.80;;
35506;SDS011;36461;52.018;21.036;2023-06-24T02:24:03;6.10;;;5.00;;
35506;SDS011;36461;52.018;21.036;2023-06-24T02:26:32;6.60;;;5.40;;
35506;SDS011;36461;52.018;21.036;2023-06-24T02:29:04;9.20;;;5.30;;
35506;SDS011;36461;52.018;21.036;2023-06-24T02:31:32;5.80;;;5.10;;
35506;SDS011;36461;52.018;21.036;2023-06-24T02:34:01;7.00;;;5.20;;
35506;SDS011;36461;52.018;21.036;2023-06-24T02:36:30;9.80;;;5.60;;
35506;SDS011;36461;52.018;21.036;2023-06-24T02:38:58;6.20;;;5.10;;
35506;SDS011;36461;52.018;21.036;2023-06-24T02:41:26;6.30;;;4.90;;
35506;SDS011;36461;52.018;21.036;2023-06-24T02:43:54;6.10;;;5.20;;
35506;SDS011;36461;52.018;21.036;2023-06-24T02:46:22;7.60;;;5.30;;
35506;SDS011;36461;52.018;21.036;2023-06-24T02:48:53;6.70;;;5.30;;
35506;SDS011;36461;52.018;21.036;2023-06-24T02:51:21;7.00;;;4.90;;
35506;SDS011;36461;52.018;21.036;2023-06-24T02:53:50;6.60;;;5.00;;
35506;SDS011;36461;52.018;21.036;2023-06-24T02:56:24;5.70;;;4.70;;
35506;SDS011;36461;52.018;21.036;2023-06-24T02:58:55;8.80;;;5.60;;
35506;SDS011;36461;52.018;21.036;2023-06-24T03:01:26;6.10;;;5.40;;
35506;SDS011;36461;52.018;21.036;2023-06-24T03:03:57;7.90;;;4.90;;
35506;SDS011;36461;52.018;21.036;2023-06-24T03:06:25;6.30;;;4.90;;
35506;SDS011;36461;52.018;21.036;2023-06-24T03:08:59;6.30;;;5.10;;
35506;SDS011;36461;52.018;21.036;2023-06-24T03:11:28;6.80;;;5.50;;
35506;SDS011;36461;52.018;21.036;2023-06-24T03:13:59;6.00;;;5.10;;
35506;SDS011;36461;52.018;21.036;2023-06-24T03:16:40;6.80;;;5.10;;
35506;SDS011;36461;52.018;21.036;2023-06-24T03:19:13;6.70;;;5.30;;
35506;SDS011;36461;52.018;21.036;2023-06-24T03:21:42;7.30;;;5.60;;
35506;SDS011;36461;52.018;21.036;2023-06-24T03:24:12;6.20;;;5.10;;
35506;SDS011;36461;52.018;21.036;2023-06-24T03:26:41;7.50;;;5.70;;
35506;SDS011;36461;52.018;21.036;2023-06-24T03:29:12;7.10;;;5.10;;
35506;SDS011;36461;52.018;21.036;2023-06-24T03:32:00;8.20;;;4.90;;
35506;SDS011;36461;52.018;21.036;2023-06-24T03:34:30;7.70;;;5.30;;
35506;SDS011;36461;52.018;21.036;2023-06-24T03:36:58;7.00;;;5.10;;
35506;SDS011;36461;52.018;21.036;2023-06-24T03:39:27;6.50;;;4.40;;
35506;SDS011;36461;52.018;21.036;2023-06-24T03:41:57;6.40;;;5.10;;
35506;SDS011;36461;52.018;21.036;2023-06-24T03:44:26;6.50;;;5.30;;
35506;SDS011;36461;52.018;21.036;2023-06-24T03:46:54;7.20;;;5.40;;
35506;SDS011;36461;52.018;21.036;2023-06-24T03:49:22;7.60;;;5.30;;
35506;SDS011;36461;52.018;21.036;2023-06-24T03:51:50;6.50;;;4.90;;
35506;SDS011;36461;52.018;21.036;2023-06-24T03:54:20;5.60;;;4.90;;
35506;SDS011;36461;52.018;21.036;2023-06-24T03:56:48;5.80;;;5.00;;
35506;SDS011;36461;52.018;21.036;2023-06-24T03:59:16;5.20;;;4.70;;
35506;SDS011;36461;52.018;21.036;2023-06-24T04:01:45;7.60;;;5.70;;
35506;SDS011;36461;52.018;21.036;2023-06-24T04:04:13;6.00;;;4.90;;
35506;SDS011;36461;52.018;21.036;2023-06-24T04:06:41;5.60;;;4.80;;
35506;SDS011;36461;52.018;21.036;2023-06-24T04:09:11;6.00;;;5.00;;
35506;SDS011;36461;52.018;21.036;2023-06-24T04:11:40;8.40;;;6.00;;
35506;SDS011;36461;52.018;21.036;2023-06-24T04:14:08;7.80;;;5.70;;
35506;SDS011;36461;52.018;21.036;2023-06-24T04:16:38;6.70;;;5.70;;
35506;SDS011;36461;52.018;21.036;2023-06-24T04:19:06;8.30;;;5.70;;
35506;SDS011;36461;52.018;21.036;2023-06-24T04:21:34;8.00;;;5.70;;
35506;SDS011;36461;52.018;21.036;2023-06-24T04:24:02;6.30;;;5.10;;
35506;SDS011;36461;52.018;21.036;2023-06-24T04:26:31;8.30;;;5.50;;
35506;SDS011;36461;52.018;21.036;2023-06-24T04:28:59;7.60;;;5.10;;
35506;SDS011;36461;52.018;21.036;2023-06-24T04:31:28;6.40;;;5.20;;
35506;SDS011;36461;52.018;21.036;2023-06-24T04:33:56;6.80;;;5.20;;
35506;SDS011;36461;52.018;21.036;2023-06-24T04:36:24;8.00;;;5.40;;
35506;SDS011;36461;52.018;21.036;2023-06-24T04:38:52;7.80;;;5.40;;
35506;SDS011;36461;52.018;21.036;2023-06-24T04:41:21;7.30;;;5.70;;
35506;SDS011;36461;52.018;21.036;2023-06-24T04:43:49;8.50;;;5.60;;
35506;SDS011;36461;52.018;21.036;2023-06-24T04:46:17;7.30;;;5.40;;
35506;SDS011;36461;52.018;21.036;2023-06-24T04:48:46;6.50;;;5.80;;
35506;SDS011;36461;52.018;21.036;2023-06-24T04:51:14;10.00;;;5.90;;
35506;SDS011;36461;52.018;21.036;2023-06-24T04:53:42;8.10;;;6.20;;
35506;SDS011;36461;52.018;21.036;2023-06-24T04:59:29;6.90;;;5.50;;
35506;SDS011;36461;52.018;21.036;2023-06-24T05:01:57;7.10;;;5.60;;
35506;SDS011;36461;52.018;21.036;2023-06-24T05:04:25;7.40;;;5.70;;
35506;SDS011;36461;52.018;21.036;2023-06-24T05:06:54;7.20;;;5.80;;
35506;SDS011;36461;52.018;21.036;2023-06-24T05:09:22;8.20;;;6.30;;
35506;SDS011;36461;52.018;21.036;2023-06-24T05:11:50;8.70;;;6.70;;
35506;SDS011;36461;52.018;21.036;2023-06-24T05:14:18;7.90;;;5.80;;
35506;SDS011;36461;52.018;21.036;2023-06-24T05:16:47;7.10;;;5.30;;
35506;SDS011;36461;52.018;21.036;2023-06-24T05:19:15;8.50;;;5.40;;
35506;SDS011;36461;52.018;21.036;2023-06-24T05:21:44;7.50;;;5.60;;
35506;SDS011;36461;52.018;21.036;2023-06-24T05:24:12;7.10;;;5.40;;
35506;SDS011;36461;52.018;21.036;2023-06-24T05:26:40;7.20;;;5.20;;
35506;SDS011;36461;52.018;21.036;2023-06-24T05:29:08;8.20;;;5.60;;
35506;SDS011;36461;52.018;21.036;2023-06-24T05:31:36;7.60;;;5.70;;
35506;SDS011;36461;52.018;21.036;2023-06-24T05:34:04;9.30;;;5.80;;
35506;SDS011;36461;52.018;21.036;2023-06-24T05:36:33;6.60;;;5.40;;
35506;SDS011;36461;52.018;21.036;2023-06-24T05:39:01;6.30;;;5.40;;
35506;SDS011;36461;52.018;21.036;2023-06-24T05:41:29;7.00;;;5.40;;
35506;SDS011;36461;52.018;21.036;2023-06-24T05:44:04;7.60;;;5.20;;
35506;SDS011;36461;52.018;21.036;2023-06-24T05:46:35;7.50;;;5.70;;
35506;SDS011;36461;52.018;21.036;2023-06-24T05:49:04;8.40;;;5.60;;
35506;SDS011;36461;52.018;21.036;2023-06-24T05:51:32;8.60;;;5.50;;
35506;SDS011;36461;52.018;21.036;2023-06-24T05:54:00;8.80;;;5.80;;
35506;SDS011;36461;52.018;21.036;2023-06-24T05:56:28;7.30;;;5.10;;
35506;SDS011;36461;52.018;21.036;2023-06-24T05:58:56;7.60;;;5.30;;
35506;SDS011;36461;52.018;21.036;2023-06-24T06:01:24;6.70;;;5.50;;
35506;SDS011;36461;52.018;21.036;2023-06-24T06:03:53;5.80;;;5.20;;
35506;SDS011;36461;52.018;21.036;2023-06-24T06:06:21;6.20;;;5.50;;
35506;SDS011;36461;52.018;21.036;2023-06-24T06:08:49;6.90;;;5.40;;
35506;SDS011;36461;52.018;21.036;2023-06-24T06:11:17;6.40;;;4.90;;
35506;SDS011;36461;52.018;21.036;2023-06-24T06:13:45;6.00;;;5.10;;
35506;SDS011;36461;52.018;21.036;2023-06-24T06:16:13;5.20;;;4.70;;
35506;SDS011;36461;52.018;21.036;2023-06-24T06:18:42;6.80;;;4.80;;
35506;SDS011;36461;52.018;21.036;2023-06-24T06:21:10;6.10;;;4.80;;
35506;SDS011;36461;52.018;21.036;2023-06-24T06:23:38;6.80;;;4.30;;
35506;SDS011;36461;52.018;21.036;2023-06-24T06:26:06;5.60;;;4.60;;
35506;SDS011;36461;52.018;21.036;2023-06-24T06:28:34;5.70;;;4.30;;
35506;SDS011;36461;52.018;21.036;2023-06-24T06:31:02;5.20;;;4.30;;
35506;SDS011;36461;52.018;21.036;2023-06-24T06:33:31;5.80;;;4.50;;
35506;SDS011;36461;52.018;21.036;2023-06-24T06:35:59;4.20;;;3.80;;
35506;SDS011;36461;52.018;21.036;2023-06-24T06:38:27;5.20;;;4.00;;
35506;SDS011;36461;52.018;21.036;2023-06-24T06:40:55;4.60;;;3.20;;
35506;SDS011;36461;52.018;21.036;2023-06-24T06:43:23;4.90;;;4.00;;
35506;SDS011;36461;52.018;21.036;2023-06-24T06:45:51;5.70;;;4.60;;
35506;SDS011;36461;52.018;21.036;2023-06-24T06:48:19;7.70;;;4.50;;
35506;SDS011;36461;52.018;21.036;2023-06-24T06:50:48;5.30;;;4.40;;
35506;SDS011;36461;52.018;21.036;2023-06-24T06:53:16;5.20;;;3.90;;
35506;SDS011;36461;52.018;21.036;2023-06-24T06:55:44;7.30;;;4.10;;
35506;SDS011;36461;52.018;21.036;2023-06-24T06:58:12;4.30;;;3.90;;
35506;SDS011;36461;52.018;21.036;2023-06-24T07:00:40;6.70;;;4.20;;
35506;SDS011;36461;52.018;21.036;2023-06-24T07:03:08;7.60;;;3.90;;
35506;SDS011;36461;52.018;21.036;2023-06-24T07:05:36;5.70;;;4.20;;
35506;SDS011;36461;52.018;21.036;2023-06-24T07:08:06;5.10;;;4.00;;
35506;SDS011;36461;52.018;21.036;2023-06-24T07:10:35;6.00;;;4.70;;
35506;SDS011;36461;52.018;21.036;2023-06-24T07:13:03;6.90;;;4.80;;
35506;SDS011;36461;52.018;21.036;2023-06-24T07:15:31;5.70;;;4.70;;
35506;SDS011;36461;52.018;21.036;2023-06-24T07:18:00;6.60;;;4.00;;
35506;SDS011;36461;52.018;21.036;2023-06-24T07:20:28;6.10;;;4.80;;
35506;SDS011;36461;52.018;21.036;2023-06-24T07:22:56;6.30;;;4.50;;
35506;SDS011;36461;52.018;21.036;2023-06-24T07:25:24;9.30;;;4.60;;
35506;SDS011;36461;52.018;21.036;2023-06-24T07:27:53;8.40;;;4.50;;
35506;SDS011;36461;52.018;21.036;2023-06-24T07:30:22;7.30;;;4.90;;
35506;SDS011;36461;52.018;21.036;2023-06-24T07:32:50;6.10;;;4.00;;
35506;SDS011;36461;52.018;21.036;2023-06-24T07:35:18;8.30;;;4.30;;
35506;SDS011;36461;52.018;21.036;2023-06-24T07:37:46;5.70;;;4.10;;
35506;SDS011;36461;52.018;21.036;2023-06-24T07:40:16;7.70;;;4.20;;
35506;SDS011;36461;52.018;21.036;2023-06-24T07:42:44;5.70;;;5.10;;
35506;SDS011;36461;52.018;21.036;2023-06-24T07:45:12;7.00;;;4.80;;
35506;SDS011;36461;52.018;21.036;2023-06-24T07:47:40;6.00;;;4.30;;
35506;SDS011;36461;52.018;21.036;2023-06-24T07:50:08;8.10;;;4.80;;
35506;SDS011;36461;52.018;21.036;2023-06-24T07:52:38;4.80;;;4.30;;
35506;SDS011;36461;52.018;21.036;2023-06-24T07:55:06;6.10;;;4.50;;
35506;SDS011;36461;52.018;21.036;2023-06-24T07:57:35;6.90;;;4.60;;
35506;SDS011;36461;52.018;21.036;2023-06-24T08:00:05;6.40;;;4.60;;
35506;SDS011;36461;52.018;21.036;2023-06-24T08:02:40;5.50;;;4.30;;
35506;SDS011;36461;52.018;21.036;2023-06-24T08:05:09;5.50;;;4.60;;
35506;SDS011;36461;52.018;21.036;2023-06-24T08:07:37;5.40;;;4.20;;
35506;SDS011;36461;52.018;21.036;2023-06-24T08:10:06;6.20;;;4.20;;
35506;SDS011;36461;52.018;21.036;2023-06-24T08:12:34;5.90;;;4.10;;
35506;SDS011;36461;52.018;21.036;2023-06-24T08:15:03;7.40;;;4.20;;
35506;SDS011;36461;52.018;21.036;2023-06-24T08:17:32;7.40;;;4.10;;
35506;SDS011;36461;52.018;21.036;2023-06-24T08:20:01;6.30;;;4.30;;
35506;SDS011;36461;52.018;21.036;2023-06-24T08:22:30;5.10;;;4.10;;
35506;SDS011;36461;52.018;21.036;2023-06-24T08:24:58;4.60;;;4.10;;
35506;SDS011;36461;52.018;21.036;2023-06-24T08:27:26;4.80;;;4.20;;
35506;SDS011;36461;52.018;21.036;2023-06-24T08:29:55;6.00;;;4.30;;
35506;SDS011;36461;52.018;21.036;2023-06-24T08:32:23;5.50;;;4.30;;
35506;SDS011;36461;52.018;21.036;2023-06-24T08:34:51;5.90;;;4.30;;
35506;SDS011;36461;52.018;21.036;2023-06-24T08:37:19;4.70;;;4.20;;
35506;SDS011;36461;52.018;21.036;2023-06-24T08:39:47;5.40;;;4.50;;
35506;SDS011;36461;52.018;21.036;2023-06-24T08:42:15;6.80;;;4.60;;
35506;SDS011;36461;52.018;21.036;2023-06-24T08:44:43;6.10;;;4.50;;
35506;SDS011;36461;52.018;21.036;2023-06-24T08:47:11;6.00;;;4.30;;
35506;SDS011;36461;52.018;21.036;2023-06-24T08:49:44;4.80;;;4.30;;
35506;SDS011;36461;52.018;21.036;2023-06-24T08:52:16;6.20;;;4.60;;
35506;SDS011;36461;52.018;21.036;2023-06-24T08:54:46;5.50;;;4.60;;
35506;SDS011;36461;52.018;21.036;2023-06-24T08:57:16;6.60;;;4.60;;
35506;SDS011;36461;52.018;21.036;2023-06-24T08:59:46;4.70;;;4.10;;
35506;SDS011;36461;52.018;21.036;2023-06-24T09:02:14;5.30;;;4.30;;
35506;SDS011;36461;52.018;21.036;2023-06-24T09:04:42;6.30;;;4.60;;
35506;SDS011;36461;52.018;21.036;2023-06-24T09:07:10;7.20;;;4.90;;
35506;SDS011;36461;52.018;21.036;2023-06-24T09:09:43;4.70;;;3.90;;
35506;SDS011;36461;52.018;21.036;2023-06-24T09:12:13;4.80;;;4.40;;
35506;SDS011;36461;52.018;21.036;2023-06-24T09:14:47;6.20;;;4.60;;
35506;SDS011;36461;52.018;21.036;2023-06-24T09:17:17;5.60;;;4.30;;
35506;SDS011;36461;52.018;21.036;2023-06-24T09:19:46;6.70;;;4.70;;
35506;SDS011;36461;52.018;21.036;2023-06-24T09:22:14;4.30;;;3.80;;
35506;SDS011;36461;52.018;21.036;2023-06-24T09:24:48;5.20;;;3.90;;
35506;SDS011;36461;52.018;21.036;2023-06-24T09:27:17;4.30;;;3.50;;
35506;SDS011;36461;52.018;21.036;2023-06-24T09:29:49;3.80;;;3.40;;
35506;SDS011;36461;52.018;21.036;2023-06-24T09:32:17;4.90;;;4.40;;
35506;SDS011;36461;52.018;21.036;2023-06-24T09:34:46;4.50;;;3.40;;
35506;SDS011;36461;52.018;21.036;2023-06-24T09:37:20;4.10;;;3.60;;
35506;SDS011;36461;52.018;21.036;2023-06-24T09:39:51;4.50;;;3.60;;
35506;SDS011;36461;52.018;21.036;2023-06-24T09:42:20;4.30;;;3.60;;
35506;SDS011;36461;52.018;21.036;2023-06-24T09:44:53;4.40;;;3.60;;
35506;SDS011;36461;52.018;21.036;2023-06-24T09:47:23;3.90;;;3.30;;
35506;SDS011;36461;52.018;21.036;2023-06-24T09:49:55;5.00;;;3.30;;
35506;SDS011;36461;52.018;21.036;2023-06-24T09:52:23;4.50;;;3.20;;
35506;SDS011;36461;52.018;21.036;2023-06-24T09:54:54;6.30;;;3.60;;
35506;SDS011;36461;52.018;21.036;2023-06-24T09:57:25;4.80;;;3.70;;
35506;SDS011;36461;52.018;21.036;2023-06-24T09:59:57;4.60;;;3.60;;
35506;SDS011;36461;52.018;21.036;2023-06-24T10:02:28;5.50;;;3.80;;
35506;SDS011;36461;52.018;21.036;2023-06-24T10:04:59;6.30;;;3.80;;
35506;SDS011;36461;52.018;21.036;2023-06-24T10:07:29;5.00;;;3.50;;
35506;SDS011;36461;52.018;21.036;2023-06-24T10:10:00;6.00;;;3.90;;
35506;SDS011;36461;52.018;21.036;2023-06-24T10:12:29;4.70;;;3.70;;
35506;SDS011;36461;52.018;21.036;2023-06-24T10:14:59;3.60;;;3.30;;
35506;SDS011;36461;52.018;21.036;2023-06-24T10:17:29;4.50;;;3.70;;
35506;SDS011;36461;52.018;21.036;2023-06-24T10:19:58;5.00;;;3.60;;
35506;SDS011;36461;52.018;21.036;2023-06-24T10:22:31;4.60;;;3.30;;
35506;SDS011;36461;52.018;21.036;2023-06-24T10:25:00;5.60;;;3.70;;
35506;SDS011;36461;52.018;21.036;2023-06-24T10:27:29;4.70;;;4.00;;
35506;SDS011;36461;52.018;21.036;2023-06-24T10:30:07;4.50;;;3.90;;
35506;SDS011;36461;52.018;21.036;2023-06-24T10:32:39;4.40;;;3.70;;
35506;SDS011;36461;52.018;21.036;2023-06-24T10:35:25;5.10;;;3.90;;
35506;SDS011;36461;52.018;21.036;2023-06-24T10:38:00;5.00;;;3.70;;
35506;SDS011;36461;52.018;21.036;2023-06-24T10:43:26;4.30;;;3.90;;
35506;SDS011;36461;52.018;21.036;2023-06-24T10:45:56;4.50;;;4.00;;
35506;SDS011;36461;52.018;21.036;2023-06-24T10:48:25;4.40;;;3.50;;
35506;SDS011;36461;52.018;21.036;2023-06-24T10:50:54;5.00;;;3.60;;
35506;SDS011;36461;52.018;21.036;2023-06-24T10:53:22;4.80;;;3.90;;
35506;SDS011;36461;52.018;21.036;2023-06-24T10:55:50;5.20;;;4.40;;
35506;SDS011;36461;52.018;21.036;2023-06-24T10:58:18;5.70;;;3.80;;
35506;SDS011;36461;52.018;21.036;2023-06-24T11:00:46;4.80;;;3.90;;
35506;SDS011;36461;52.018;21.036;2023-06-24T11:03:16;4.10;;;3.70;;
35506;SDS011;36461;52.018;21.036;2023-06-24T11:05:46;4.70;;;4.20;;
35506;SDS011;36461;52.018;21.036;2023-06-24T11:08:16;6.00;;;4.10;;
35506;SDS011;36461;52.018;21.036;2023-06-24T11:13:13;5.40;;;3.90;;
35506;SDS011;36461;52.018;21.036;2023-06-24T11:15:42;4.60;;;4.20;;
35506;SDS011;36461;52.018;21.036;2023-06-24T11:18:10;4.00;;;3.60;;
35506;SDS011;36461;52.018;21.036;2023-06-24T11:20:39;5.70;;;4.40;;
35506;SDS011;36461;52.018;21.036;2023-06-24T11:23:08;9.40;;;4.30;;
35506;SDS011;36461;52.018;21.036;2023-06-24T11:25:42;6.10;;;4.00;;
35506;SDS011;36461;52.018;21.036;2023-06-24T11:28:15;4.50;;;4.10;;
35506;SDS011;36461;52.018;21.036;2023-06-24T11:30:49;4.40;;;4.00;;
35506;SDS011;36461;52.018;21.036;2023-06-24T11:33:26;4.40;;;4.00;;
35506;SDS011;36461;52.018;21.036;2023-06-24T11:35:57;5.00;;;4.20;;
35506;SDS011;36461;52.018;21.036;2023-06-24T11:38:25;5.90;;;4.40;;
35506;SDS011;36461;52.018;21.036;2023-06-24T11:41:00;6.20;;;4.10;;
35506;SDS011;36461;52.018;21.036;2023-06-24T11:43:28;7.50;;;4.10;;
35506;SDS011;36461;52.018;21.036;2023-06-24T11:45:57;5.40;;;4.10;;
35506;SDS011;36461;52.018;21.036;2023-06-24T11:48:28;4.40;;;3.80;;
35506;SDS011;36461;52.018;21.036;2023-06-24T11:50:57;6.10;;;4.00;;
35506;SDS011;36461;52.018;21.036;2023-06-24T11:53:40;6.20;;;3.90;;
35506;SDS011;36461;52.018;21.036;2023-06-24T11:56:10;4.40;;;3.90;;
35506;SDS011;36461;52.018;21.036;2023-06-24T11:58:38;8.30;;;4.50;;
35506;SDS011;36461;52.018;21.036;2023-06-24T12:01:07;4.80;;;4.00;;
35506;SDS011;36461;52.018;21.036;2023-06-24T12:03:36;4.00;;;3.60;;
35506;SDS011;36461;52.018;21.036;2023-06-24T12:06:04;7.10;;;4.30;;
35506;SDS011;36461;52.018;21.036;2023-06-24T12:08:33;5.90;;;3.90;;
35506;SDS011;36461;52.018;21.036;2023-06-24T12:13:47;4.00;;;3.50;;
35506;SDS011;36461;52.018;21.036;2023-06-24T12:16:15;5.20;;;3.70;;
35506;SDS011;36461;52.018;21.036;2023-06-24T12:18:43;6.50;;;3.90;;
35506;SDS011;36461;52.018;21.036;2023-06-24T12:21:11;6.30;;;4.50;;
35506;SDS011;36461;52.018;21.036;2023-06-24T12:23:40;8.30;;;5.70;;
35506;SDS011;36461;52.018;21.036;2023-06-24T12:26:08;8.80;;;5.70;;
35506;SDS011;36461;52.018;21.036;2023-06-24T12:28:36;6.60;;;4.20;;
35506;SDS011;36461;52.018;21.036;2023-06-24T12:31:04;6.20;;;4.70;;
35506;SDS011;36461;52.018;21.036;2023-06-24T12:33:33;5.60;;;4.30;;
35506;SDS011;36461;52.018;21.036;2023-06-24T12:36:01;4.20;;;3.80;;
35506;SDS011;36461;52.018;21.036;2023-06-24T12:38:29;5.70;;;4.40;;
35506;SDS011;36461;52.018;21.036;2023-06-24T12:40:57;5.90;;;4.90;;
35506;SDS011;36461;52.018;21.036;2023-06-24T12:43:26;5.90;;;4.60;;
35506;SDS011;36461;52.018;21.036;2023-06-24T12:45:54;5.80;;;5.10;;
35506;SDS011;36461;52.018;21.036;2023-06-24T12:48:23;6.20;;;5.30;;
35506;SDS011;36461;52.018;21.036;2023-06-24T12:50:51;5.60;;;5.00;;
35506;SDS011;36461;52.018;21.036;2023-06-24T12:53:21;6.00;;;5.30;;
35506;SDS011;36461;52.018;21.036;2023-06-24T12:55:49;8.00;;;5.50;;
35506;SDS011;36461;52.018;21.036;2023-06-24T12:58:19;6.50;;;5.30;;
35506;SDS011;36461;52.018;21.036;2023-06-24T13:00:50;6.40;;;5.70;;
35506;SDS011;36461;52.018;21.036;2023-06-24T13:03:18;7.60;;;5.40;;
35506;SDS011;36461;52.018;21.036;2023-06-24T13:05:47;5.80;;;5.10;;
35506;SDS011;36461;52.018;21.036;2023-06-24T13:08:15;6.60;;;5.90;;
35506;SDS011;36461;52.018;21.036;2023-06-24T13:10:43;8.80;;;6.20;;
35506;SDS011;36461;52.018;21.036;2023-06-24T13:13:11;8.20;;;5.90;;
35506;SDS011;36461;52.018;21.036;2023-06-24T13:15:39;6.90;;;5.70;;
35506;SDS011;36461;52.018;21.036;2023-06-24T13:18:08;7.60;;;5.90;;
35506;SDS011;36461;52.018;21.036;2023-06-24T13:20:36;7.30;;;6.00;;
35506;SDS011;36461;52.018;21.036;2023-06-24T13:23:04;7.90;;;5.70;;
35506;SDS011;36461;52.018;21.036;2023-06-24T13:25:33;8.60;;;6.30;;
35506;SDS011;36461;52.018;21.036;2023-06-24T13:28:02;6.50;;;5.80;;
35506;SDS011;36461;52.018;21.036;2023-06-24T13:30:30;8.10;;;6.30;;
35506;SDS011;36461;52.018;21.036;2023-06-24T13:32:59;7.10;;;5.10;;
35506;SDS011;36461;52.018;21.036;2023-06-24T13:35:27;6.40;;;5.60;;
35506;SDS011;36461;52.018;21.036;2023-06-24T13:37:56;6.10;;;5.50;;
35506;SDS011;36461;52.018;21.036;2023-06-24T13:40:26;7.20;;;5.40;;
35506;SDS011;36461;52.018;21.036;2023-06-24T13:42:54;9.20;;;5.00;;
35506;SDS011;36461;52.018;21.036;2023-06-24T13:45:22;6.30;;;5.10;;
35506;SDS011;36461;52.018;21.036;2023-06-24T13:47:50;5.70;;;5.00;;
35506;SDS011;36461;52.018;21.036;2023-06-24T13:50:18;7.10;;;5.30;;
35506;SDS011;36461;52.018;21.036;2023-06-24T13:52:47;6.20;;;5.50;;
35506;SDS011;36461;52.018;21.036;2023-06-24T13:55:15;6.10;;;5.30;;
35506;SDS011;36461;52.018;21.036;2023-06-24T13:57:43;6.40;;;5.40;;
35506;SDS011;36461;52.018;21.036;2023-06-24T14:00:13;6.30;;;5.70;;
35506;SDS011;36461;52.018;21.036;2023-06-24T14:02:42;7.10;;;5.10;;
35506;SDS011;36461;52.018;21.036;2023-06-24T14:05:11;7.20;;;5.80;;
35506;SDS011;36461;52.018;21.036;2023-06-24T14:07:39;8.10;;;5.50;;
35506;SDS011;36461;52.018;21.036;2023-06-24T14:10:07;6.50;;;5.40;;
35506;SDS011;36461;52.018;21.036;2023-06-24T14:12:36;6.70;;;5.80;;
35506;SDS011;36461;52.018;21.036;2023-06-24T14:15:05;5.90;;;4.90;;
35506;SDS011;36461;52.018;21.036;2023-06-24T14:17:33;5.70;;;5.10;;
35506;SDS011;36461;52.018;21.036;2023-06-24T14:20:02;7.50;;;6.00;;
35506;SDS011;36461;52.018;21.036;2023-06-24T14:22:31;7.80;;;5.50;;
35506;SDS011;36461;52.018;21.036;2023-06-24T14:24:59;6.40;;;5.40;;
35506;SDS011;36461;52.018;21.036;2023-06-24T14:27:27;6.90;;;5.40;;
35506;SDS011;36461;52.018;21.036;2023-06-24T14:29:55;6.80;;;5.70;;
35506;SDS011;36461;52.018;21.036;2023-06-24T14:32:23;7.80;;;5.20;;
35506;SDS011;36461;52.018;21.036;2023-06-24T14:34:55;5.80;;;5.20;;
35506;SDS011;36461;52.018;21.036;2023-06-24T14:37:23;6.80;;;4.60;;
35506;SDS011;36461;52.018;21.036;2023-06-24T14:39:51;5.20;;;4.50;;
35506;SDS011;36461;52.018;21.036;2023-06-24T14:42:19;4.70;;;4.30;;
35506;SDS011;36461;52.018;21.036;2023-06-24T14:44:47;4.90;;;4.00;;
35506;SDS011;36461;52.018;21.036;2023-06-24T14:47:15;6.00;;;4.00;;
35506;SDS011;36461;52.018;21.036;2023-06-24T14:49:43;4.50;;;3.90;;
35506;SDS011;36461;52.018;21.036;2023-06-24T14:52:11;8.20;;;3.80;;
35506;SDS011;36461;52.018;21.036;2023-06-24T14:54:40;4.40;;;4.00;;
35506;SDS011;36461;52.018;21.036;2023-06-24T14:57:08;5.20;;;3.70;;
35506;SDS011;36461;52.018;21.036;2023-06-24T14:59:36;4.60;;;3.50;;
35506;SDS011;36461;52.018;21.036;2023-06-24T15:02:04;5.70;;;4.30;;
35506;SDS011;36461;52.018;21.036;2023-06-24T15:04:32;5.00;;;3.90;;
35506;SDS011;36461;52.018;21.036;2023-06-24T15:07:00;4.20;;;3.60;;
35506;SDS011;36461;52.018;21.036;2023-06-24T15:09:29;4.40;;;3.50;;
35506;SDS011;36461;52.018;21.036;2023-06-24T15:11:58;4.70;;;4.00;;